^^
MeteoGriva-Weather Station Historical Data
Daily Summary for August 02, 2020 Units:  Metric    English   Both
Daily Weekly Monthly Yearly Custom
  High: Low: Average:
Temperature: 33.9 °C 21.8 °C 26.9 °C
Dew Point: 21.4 °C 13.7 °C 17.4 °C
Humidity: 78.9% 33.2% 58%
Wind Speed: 12.4km/h 0km/h 2.6km/h
Wind Gust: 28km/h - -
Wind- - SSE
Pressure: 1009.1 hPa 1004.4 hPa -
Precipitation: 0.0 mm    
Historical Graphs
 
 
Tabular Data for August 02, 2020
Time Temperature Dew Point Pressure Wind Wind Speed Wind Gust Humidity Rainfall Rate (Hourly) solar
00:04 25.5 °C 16.4 °C 1004.7 hPa Calm   4 km/h 57.1% 0.0 mm 0 W/m2
00:09 25.8 °C 16.5 °C 1004.7 hPa Calm   7.9 km/h 56.8% 0.0 mm 0 W/m2
00:14 25.9 °C 16.9 °C 1004.7 hPa Calm     57.8% 0.0 mm 0 W/m2
00:19 25.8 °C 17.2 °C 1004.7 hPa Calm     59.1% 0.0 mm 0 W/m2
00:24 25.6 °C 17.3 °C 1004.7 hPa NNW 0.6 km/h 7.9 km/h 60% 0.0 mm 0 W/m2
00:29 25 °C 16.9 °C 1004.7 hPa Calm   7.9 km/h 60.6% 0.0 mm 0 W/m2
00:34 24.6 °C 16.6 °C 1004.7 hPa Calm     61% 0.0 mm 0 W/m2
00:39 24.6 °C 16.5 °C 1005.1 hPa Calm     60.8% 0.0 mm 0 W/m2
00:44 24.5 °C 16.5 °C 1005.1 hPa Calm     60.7% 0.0 mm 0 W/m2
00:49 24.4 °C 16.3 °C 1005.1 hPa NW 1.4 km/h 12.2 km/h 60.3% 0.0 mm 0 W/m2
00:54 24.4 °C 16 °C 1005.1 hPa North 3.2 km/h 12.2 km/h 59.2% 0.0 mm 0 W/m2
00:59 24.5 °C 15.9 °C 1004.7 hPa North 6.2 km/h 12.2 km/h 58.4% 0.0 mm 0 W/m2
01:04 24.7 °C 16 °C 1005.1 hPa North 3 km/h 16.3 km/h 58.4% 0.0 mm 0 W/m2
01:09 25.1 °C 16.6 °C 1004.7 hPa NW 3.6 km/h 16.3 km/h 59.3% 0.0 mm 0 W/m2
01:14 25.3 °C 17.1 °C 1005.1 hPa North 2.6 km/h 12.2 km/h 60.6% 0.0 mm 0 W/m2
01:19 25.3 °C 17.2 °C 1005.1 hPa NNW 2.1 km/h 12.2 km/h 61.2% 0.0 mm 0 W/m2
01:24 25.2 °C 17.3 °C 1005.1 hPa West 0.3 km/h 7.9 km/h 61.9% 0.0 mm 0 W/m2
01:29 24.9 °C 17.4 °C 1004.7 hPa NW 0.3 km/h 4 km/h 63% 0.0 mm 0 W/m2
01:34 24.6 °C 16.9 °C 1005.1 hPa Calm   4 km/h 62.2% 0.0 mm 0 W/m2
01:39 24.6 °C 16.8 °C 1005.1 hPa Calm     61.8% 0.0 mm 0 W/m2
01:44 24.5 °C 16.7 °C 1005.1 hPa Calm     62% 0.0 mm 0 W/m2
01:49 24.4 °C 16.7 °C 1004.7 hPa Calm     62% 0.0 mm 0 W/m2
01:54 24.2 °C 16.6 °C 1004.7 hPa Calm     62.6% 0.0 mm 0 W/m2
01:59 24.2 °C 16.6 °C 1004.7 hPa Calm     62.7% 0.0 mm 0 W/m2
02:04 24.2 °C 16.7 °C 1004.7 hPa Calm     63% 0.0 mm 0 W/m2
02:09 24 °C 16.4 °C 1004.7 hPa Calm     62.6% 0.0 mm 0 W/m2
02:14 23.9 °C 16.3 °C 1004.7 hPa Calm     62.2% 0.0 mm 0 W/m2
02:19 23.9 °C 16.3 °C 1004.7 hPa Calm     62.4% 0.0 mm 0 W/m2
02:24 23.9 °C 16.1 °C 1004.7 hPa Calm     61.7% 0.0 mm 0 W/m2
02:29 24.2 °C 16 °C 1004.7 hPa Calm     60.6% 0.0 mm 0 W/m2
02:34 24.5 °C 16.1 °C 1004.7 hPa Calm     59.7% 0.0 mm 0 W/m2
02:44 24.4 °C 16.7 °C 1004.7 hPa Calm     62% 0.0 mm 0 W/m2
02:49 24.2 °C 17 °C 1004.7 hPa Calm     64.3% 0.0 mm 0 W/m2
02:54 23.8 °C 17.3 °C 1004.4 hPa Calm     66.8% 0.0 mm 0 W/m2
02:59 23.9 °C 17.4 °C 1004.4 hPa Calm     67.1% 0.0 mm 0 W/m2
03:04 23.9 °C 17.2 °C 1004.7 hPa Calm     66% 0.0 mm 0 W/m2
03:09 23.8 °C 17.1 °C 1004.7 hPa Calm     66% 0.0 mm 0 W/m2
03:14 23.7 °C 17.4 °C 1004.7 hPa Calm     67.7% 0.0 mm 0 W/m2
03:19 23.7 °C 18.2 °C 1004.7 hPa Calm     71.1% 0.0 mm 0 W/m2
03:24 23.7 °C 18.1 °C 1004.4 hPa Calm     70.8% 0.0 mm 0 W/m2
03:29 23.8 °C 17.7 °C 1004.7 hPa South 0.4 km/h 7.9 km/h 68.8% 0.0 mm 0 W/m2
03:34 23.7 °C 18 °C 1004.7 hPa Calm   7.9 km/h 70.8% 0.0 mm 0 W/m2
03:39 23.6 °C 17.9 °C 1004.7 hPa Calm     70.8% 0.0 mm 0 W/m2
03:44 23.5 °C 18 °C 1004.7 hPa Calm     71.3% 0.0 mm 0 W/m2
03:49 23.1 °C 17.8 °C 1004.7 hPa Calm     71.9% 0.0 mm 0 W/m2
03:54 22.6 °C 17 °C 1004.7 hPa NW 0.3 km/h 7.9 km/h 70.7% 0.0 mm 0 W/m2
03:59 22.6 °C 16.8 °C 1004.7 hPa Calm   7.9 km/h 70% 0.0 mm 0 W/m2
04:04 22.6 °C 16.8 °C 1004.7 hPa Calm     70% 0.0 mm 0 W/m2
04:09 22.8 °C 17 °C 1004.7 hPa Calm     70.3% 0.0 mm 0 W/m2
04:14 22.8 °C 17.4 °C 1004.7 hPa Calm     71.7% 0.0 mm 0 W/m2
04:19 22.8 °C 17.5 °C 1004.7 hPa Calm     72.2% 0.0 mm 0 W/m2
04:24 22.8 °C 17.8 °C 1004.7 hPa Calm     73.3% 0.0 mm 0 W/m2
04:29 22.7 °C 17.7 °C 1004.7 hPa Calm     73.4% 0.0 mm 0 W/m2
04:34 22.6 °C 17.4 °C 1004.7 hPa Calm     72.3% 0.0 mm 0 W/m2
04:39 22.6 °C 17.3 °C 1005.1 hPa Calm     71.8% 0.0 mm 0 W/m2
04:44 22.7 °C 17.6 °C 1005.1 hPa Calm     72.9% 0.0 mm 0 W/m2
04:49 22.8 °C 17.5 °C 1005.1 hPa Calm     72% 0.0 mm 0 W/m2
04:54 23 °C 17.8 °C 1005.1 hPa Calm     72.4% 0.0 mm 0 W/m2
04:59 22.9 °C 18 °C 1005.1 hPa Calm     74% 0.0 mm 0 W/m2
05:09 22.8 °C 18.3 °C 1005.1 hPa Calm     75.7% 0.0 mm 0 W/m2
05:14 22.4 °C 18 °C 1005.1 hPa SSW 0.6 km/h 12.2 km/h 76% 0.0 mm 0 W/m2
05:19 22.4 °C 17.9 °C 1005.4 hPa South 4.2 km/h 12.2 km/h 75.8% 0.0 mm 0 W/m2
05:24 22.4 °C 18.1 °C 1005.4 hPa South 3.7 km/h 12.2 km/h 76.3% 0.0 mm 0 W/m2
05:29 22.4 °C 18 °C 1005.4 hPa South 3.8 km/h 12.2 km/h 76% 0.0 mm 0 W/m2
05:34 22.4 °C 18.3 °C 1005.8 hPa Calm   7.9 km/h 77.4% 0.0 mm 0 W/m2
05:39 22.4 °C 18.3 °C 1005.8 hPa Calm     77.2% 0.0 mm 0 W/m2
05:44 22.3 °C 18 °C 1005.8 hPa Calm     76.1% 0.0 mm 0 W/m2
05:49 22.3 °C 18 °C 1005.8 hPa Calm     76.7% 0.0 mm 0 W/m2
05:54 22 °C 17.8 °C 1005.8 hPa Calm     77% 0.0 mm 0 W/m2
05:59 22 °C 17.8 °C 1005.8 hPa Calm     77% 0.0 mm 0 W/m2
06:04 22 °C 17.9 °C 1006.1 hPa Calm     77.6% 0.0 mm 0 W/m2
06:09 22 °C 18 °C 1005.8 hPa Calm     78% 0.0 mm 0 W/m2
06:14 21.9 °C 17.7 °C 1006.1 hPa Calm     77.3% 0.0 mm 0 W/m2
06:19 21.8 °C 17.6 °C 1006.1 hPa Calm     77% 0.0 mm 0 W/m2
06:24 21.8 °C 17.6 °C 1006.4 hPa NNW 0.2 km/h 4 km/h 77% 0.0 mm 0 W/m2
06:29 21.9 °C 17.5 °C 1006.4 hPa Calm   4 km/h 76.1% 0.0 mm 3 W/m2
06:34 22 °C 17.7 °C 1006.4 hPa Calm     76.7% 0.0 mm 6 W/m2
06:39 22 °C 17.7 °C 1006.1 hPa Calm   4 km/h 76.3% 0.0 mm 11 W/m2
06:44 22 °C 17.8 °C 1006.1 hPa Calm     77% 0.0 mm 37 W/m2
06:49 22 °C 17.6 °C 1006.4 hPa Calm     76.1% 0.0 mm 66 W/m2
06:54 22.3 °C 17.7 °C 1006.4 hPa Calm     75.1% 0.0 mm 91 W/m2
06:59 22.4 °C 17.5 °C 1006.4 hPa Calm     74% 0.0 mm 107 W/m2
07:04 22.6 °C 17.4 °C 1006.4 hPa Calm     72.4% 0.0 mm 123 W/m2
07:09 22.8 °C 17.1 °C 1006.4 hPa Calm     70.2% 0.0 mm 139 W/m2
07:14 24.3 °C 18.2 °C 1006.4 hPa Calm     68.7% 0.0 mm 154 W/m2
07:19 24.5 °C 18.3 °C 1006.4 hPa Calm     68.4% 0.0 mm 167 W/m2
07:24 24.6 °C 18 °C 1006.4 hPa Calm     66.7% 0.0 mm 183 W/m2
07:29 24.9 °C 17.7 °C 1006.8 hPa Calm     64.1% 0.0 mm 200 W/m2
07:34 26.5 °C 19.1 °C 1006.4 hPa Calm     64.1% 0.0 mm 208 W/m2
07:39 26.7 °C 19.6 °C 1006.4 hPa Calm     65% 0.0 mm 228 W/m2
07:44 26.6 °C 19.6 °C 1006.4 hPa Calm     65.5% 0.0 mm 240 W/m2
07:49 26.6 °C 19.3 °C 1006.4 hPa Calm     64.3% 0.0 mm 256 W/m2
07:54 26.7 °C 19.3 °C 1006.4 hPa Calm     64% 0.0 mm 245 W/m2
07:59 26.7 °C 19.3 °C 1006.8 hPa Calm     63.9% 0.0 mm 257 W/m2
08:04 26.7 °C 19.2 °C 1006.8 hPa Calm     63.1% 0.0 mm 281 W/m2
08:09 26.8 °C 19.4 °C 1006.8 hPa Calm     63.9% 0.0 mm 221 W/m2
08:14 26.2 °C 19.2 °C 1006.8 hPa Calm     65.6% 0.0 mm 269 W/m2
08:19 26.1 °C 19.5 °C 1006.8 hPa Calm     67% 0.0 mm 270 W/m2
08:24 26 °C 19.5 °C 1006.8 hPa Calm     67.7% 0.0 mm 280 W/m2
08:29 25.9 °C 19.7 °C 1007.1 hPa Calm     68.6% 0.0 mm 279 W/m2
08:34 26.7 °C 19.5 °C 1006.8 hPa Calm     64.7% 0.0 mm 290 W/m2
08:39 26.9 °C 19.5 °C 1006.8 hPa Calm     63.9% 0.0 mm 292 W/m2
08:44 26.8 °C 20.2 °C 1007.1 hPa NNE 1.8 km/h 7.9 km/h 66.7% 0.0 mm 295 W/m2
08:49 26.7 °C 19.7 °C 1007.1 hPa ENE 0.5 km/h 7.9 km/h 65.5% 0.0 mm 302 W/m2
08:54 26.5 °C 18.4 °C 1007.1 hPa Calm   4 km/h 61% 0.0 mm 310 W/m2
08:59 26.5 °C 17.7 °C 1007.1 hPa NNE 0.8 km/h 7.9 km/h 58.6% 0.0 mm 315 W/m2
09:04 26.5 °C 17.7 °C 1007.1 hPa NE 0.9 km/h 7.9 km/h 58.7% 0.0 mm 321 W/m2
09:09 26.5 °C 17.5 °C 1007.1 hPa NE 0.2 km/h 7.9 km/h 57.8% 0.0 mm 326 W/m2
09:14 26.7 °C 17.5 °C 1007.1 hPa ENE 0.4 km/h 7.9 km/h 56.9% 0.0 mm 332 W/m2
09:19 26.9 °C 17.1 °C 1007.1 hPa Calm     55.1% 0.0 mm 337 W/m2
09:24 27 °C 16.7 °C 1007.1 hPa Calm   4 km/h 53.4% 0.0 mm 346 W/m2
09:29 27.2 °C 17.2 °C 1007.1 hPa SE 0.3 km/h 7.9 km/h 54.6% 0.0 mm 353 W/m2
09:34 28 °C 19 °C 1007.1 hPa SE 0.6 km/h 4 km/h 58.3% 0.0 mm 357 W/m2
09:39 28.3 °C 19 °C 1007.1 hPa SE 0.3 km/h 4 km/h 56.8% 0.0 mm 362 W/m2
09:44 28.4 °C 18.3 °C 1007.1 hPa SSE 0.2 km/h 7.9 km/h 54.2% 0.0 mm 372 W/m2
09:49 28.3 °C 16.8 °C 1007.1 hPa ESE 1.9 km/h 12.2 km/h 49.8% 0.0 mm 378 W/m2
09:54 28.3 °C 16.6 °C 1007.1 hPa ESE 0.3 km/h 7.9 km/h 48.9% 0.0 mm 386 W/m2
09:59 28.5 °C 14.9 °C 1006.8 hPa East 0.8 km/h 4 km/h 43.7% 0.0 mm 395 W/m2
10:04 28.5 °C 15.3 °C 1007.1 hPa NNW 5 km/h 16.3 km/h 44.6% 0.0 mm 397 W/m2
10:09 28.4 °C 15.3 °C 1007.1 hPa North 5.9 km/h 16.3 km/h 44.8% 0.0 mm 398 W/m2
10:14 27.8 °C 14.7 °C 1007.1 hPa NE 1.8 km/h 16.3 km/h 44.8% 0.0 mm 406 W/m2
10:19 27.6 °C 14.1 °C 1007.1 hPa North 1.9 km/h 7.9 km/h 43.7% 0.0 mm 417 W/m2
10:24 27.8 °C 14 °C 1007.1 hPa ESE 0.3 km/h 7.9 km/h 42.8% 0.0 mm 430 W/m2
10:29 28.1 °C 14 °C 1007.1 hPa East 1.2 km/h 7.9 km/h 42.4% 0.0 mm 438 W/m2
10:34 28.9 °C 14.3 °C 1007.1 hPa East 1.1 km/h 12.2 km/h 40.8% 0.0 mm 448 W/m2
10:39 29.4 °C 14.7 °C 1007.1 hPa ESE 2.9 km/h 20.1 km/h 40.7% 0.0 mm 452 W/m2
10:44 29.3 °C 14.8 °C 1006.8 hPa ENE 0.3 km/h 16.3 km/h 41.2% 0.0 mm 460 W/m2
10:49 29.2 °C 14.2 °C 1007.1 hPa ESE 0.4 km/h 12.2 km/h 40% 0.0 mm 470 W/m2
10:54 29.4 °C 14.2 °C 1007.1 hPa ENE 0.9 km/h 12.2 km/h 39.5% 0.0 mm 481 W/m2
10:59 29.4 °C 14.4 °C 1007.1 hPa ENE 0.4 km/h 7.9 km/h 39.9% 0.0 mm 481 W/m2
11:03 29.4 °C 13.9 °C 1007.1 hPa North 0.2 km/h 4 km/h 38.8% 0.0 mm 490 W/m2
11:09 29.5 °C 14 °C 1007.5 hPa NE 0.5 km/h 4 km/h 38.7% 0.0 mm 500 W/m2
11:14 29.8 °C 14.3 °C 1007.1 hPa Calm   4 km/h 38.9% 0.0 mm 507 W/m2
11:19 30.1 °C 14.2 °C 1007.1 hPa SE 0.2 km/h 4 km/h 38% 0.0 mm 512 W/m2
11:24 30.2 °C 15.3 °C 1007.1 hPa NE 2.1 km/h 12.2 km/h 40.5% 0.0 mm 513 W/m2
11:29 30 °C 15.7 °C 1007.1 hPa ENE 3 km/h 12.2 km/h 41.9% 0.0 mm 509 W/m2
11:34 29.9 °C 15.1 °C 1007.1 hPa Calm   7.9 km/h 40.7% 0.0 mm 513 W/m2
11:39 29.9 °C 14.6 °C 1007.1 hPa SE 2 km/h 7.9 km/h 39.4% 0.0 mm 519 W/m2
11:44 30.1 °C 14.4 °C 1007.1 hPa Calm   7.9 km/h 38.5% 0.0 mm 524 W/m2
11:49 30.3 °C 14.7 °C 1007.1 hPa East 2.5 km/h 12.2 km/h 38.8% 0.0 mm 526 W/m2
11:54 30.1 °C 14.9 °C 1007.1 hPa East 2.8 km/h 12.2 km/h 39.7% 0.0 mm 525 W/m2
11:59 29.7 °C 14.7 °C 1007.1 hPa ENE 2 km/h 12.2 km/h 40% 0.0 mm 521 W/m2
12:04 29.7 °C 14.7 °C 1007.1 hPa NNE 3 km/h 16.3 km/h 39.9% 0.0 mm 522 W/m2
12:09 29.8 °C 14.7 °C 1007.1 hPa NE 3.2 km/h 12.2 km/h 40% 0.0 mm 523 W/m2
12:14 30.1 °C 14.5 °C 1007.1 hPa East 0.9 km/h 12.2 km/h 38.7% 0.0 mm 528 W/m2
12:19 30.5 °C 15.1 °C 1007.1 hPa NNW 1.3 km/h 12.2 km/h 39.2% 0.0 mm 529 W/m2
12:24 30.4 °C 14.9 °C 1006.8 hPa NNW 5 km/h 16.3 km/h 39.1% 0.0 mm 531 W/m2
12:29 30.4 °C 14.9 °C 1007.1 hPa NE 3.6 km/h 16.3 km/h 39.1% 0.0 mm 529 W/m2
12:34 29.9 °C 14.5 °C 1007.1 hPa NNE 3.9 km/h 12.2 km/h 39.3% 0.0 mm 530 W/m2
12:39 29.3 °C 13.9 °C 1007.1 hPa NNE 0.2 km/h 12.2 km/h 38.8% 0.0 mm 537 W/m2
12:44 29.6 °C 13.7 °C 1007.1 hPa ENE 1 km/h 7.9 km/h 37.8% 0.0 mm 542 W/m2
12:49 29.6 °C 13.9 °C 1007.1 hPa ENE 1.7 km/h 4 km/h 38.3% 0.0 mm 543 W/m2
12:54 29.8 °C 14.7 °C 1006.8 hPa North 3 km/h 12.2 km/h 39.8% 0.0 mm 542 W/m2
12:59 30 °C 14.6 °C 1007.1 hPa ESE 5 km/h 20.1 km/h 39.3% 0.0 mm 540 W/m2
13:04 30.1 °C 14.7 °C 1007.1 hPa ENE 5.1 km/h 20.1 km/h 39.1% 0.0 mm 538 W/m2
13:09 30.3 °C 14.8 °C 1007.1 hPa East 3.4 km/h 16.3 km/h 38.9% 0.0 mm 541 W/m2
13:14 30.8 °C 15.2 °C 1007.1 hPa SSE 3.7 km/h 16.3 km/h 38.7% 0.0 mm 542 W/m2
13:19 31.4 °C 15.5 °C 1007.1 hPa North 2.3 km/h 12.2 km/h 38.3% 0.0 mm 545 W/m2
13:24 31.3 °C 15.6 °C 1006.8 hPa NNE 8.6 km/h 20.1 km/h 38.7% 0.0 mm 542 W/m2
13:29 31.1 °C 15.5 °C 1006.8 hPa NE 8 km/h 20.1 km/h 39% 0.0 mm 531 W/m2
13:34 30.6 °C 15.1 °C 1006.8 hPa NE 5.6 km/h 24.1 km/h 39% 0.0 mm 529 W/m2
13:39 30 °C 14.3 °C 1007.1 hPa North 2.5 km/h 16.3 km/h 38.4% 0.0 mm 537 W/m2
13:44 30.2 °C 14.3 °C 1006.8 hPa NNE 6.3 km/h 16.3 km/h 38.2% 0.0 mm 538 W/m2
13:49 30.3 °C 14.7 °C 1006.8 hPa ENE 5 km/h 16.3 km/h 38.9% 0.0 mm 537 W/m2
13:54 30.4 °C 14.7 °C 1006.8 hPa North 5.6 km/h 20.1 km/h 38.4% 0.0 mm 536 W/m2
13:59 30.9 °C 14.9 °C 1006.8 hPa North 5 km/h 20.1 km/h 38% 0.0 mm 537 W/m2
14:04 30.9 °C 14.8 °C 1006.8 hPa ENE 2.9 km/h 12.2 km/h 37.8% 0.0 mm 539 W/m2
14:09 30.8 °C 14.5 °C 1006.8 hPa ENE 1.2 km/h 12.2 km/h 37.3% 0.0 mm 549 W/m2
14:14 31.1 °C 14.5 °C 1006.8 hPa SE 4.3 km/h 20.1 km/h 36.7% 0.0 mm 549 W/m2
14:19 31.7 °C 14.9 °C 1006.4 hPa SE 2.5 km/h 20.1 km/h 36.3% 0.0 mm 548 W/m2
14:24 31.7 °C 15.1 °C 1006.4 hPa NNE 4.1 km/h 16.3 km/h 36.7% 0.0 mm 553 W/m2
14:29 31.7 °C 15.3 °C 1006.4 hPa NE 3.2 km/h 12.2 km/h 37.3% 0.0 mm 548 W/m2
14:34 31.5 °C 15.4 °C 1006.4 hPa NNE 3.6 km/h 16.3 km/h 37.8% 0.0 mm 543 W/m2
14:39 31.3 °C 15 °C 1006.4 hPa NE 4.2 km/h 16.3 km/h 37.1% 0.0 mm 544 W/m2
14:44 31.3 °C 15 °C 1006.4 hPa SE 3.4 km/h 20.1 km/h 37.2% 0.0 mm 547 W/m2
14:49 31.4 °C 14.7 °C 1006.4 hPa SE 1.9 km/h 20.1 km/h 36.4% 0.0 mm 550 W/m2
14:54 31.4 °C 14.7 °C 1006.4 hPa NNE 1.8 km/h 16.3 km/h 36.4% 0.0 mm 551 W/m2
14:59 31.1 °C 14.6 °C 1006.1 hPa East 2.3 km/h 16.3 km/h 36.8% 0.0 mm 551 W/m2
15:04 31.2 °C 14.4 °C 1006.1 hPa ESE 1.3 km/h 7.9 km/h 36% 0.0 mm 550 W/m2
15:09 31.3 °C 14.7 °C 1006.1 hPa NE 2.2 km/h 12.2 km/h 36.6% 0.0 mm 549 W/m2
15:14 31.4 °C 14.6 °C 1006.1 hPa ESE 1.8 km/h 12.2 km/h 36.1% 0.0 mm 549 W/m2
15:19 32.2 °C 14.8 °C 1006.1 hPa ESE 0.4 km/h 12.2 km/h 35% 0.0 mm 552 W/m2
15:24 32.3 °C 14.8 °C 1006.1 hPa SSE 1.5 km/h 12.2 km/h 34.7% 0.0 mm 556 W/m2
15:29 32.4 °C 15 °C 1006.1 hPa SE 3 km/h 12.2 km/h 34.9% 0.0 mm 555 W/m2
15:34 32.5 °C 15.1 °C 1005.8 hPa South 1.6 km/h 12.2 km/h 35% 0.0 mm 550 W/m2
15:39 33.2 °C 15.4 °C 1005.8 hPa South 1.3 km/h 7.9 km/h 34.3% 0.0 mm 550 W/m2
15:44 33.2 °C 15.4 °C 1005.8 hPa SSE 0.6 km/h 7.9 km/h 34.3% 0.0 mm 551 W/m2
15:49 33.2 °C 15.6 °C 1005.8 hPa Calm     34.7% 0.0 mm 548 W/m2
15:54 33.3 °C 15.2 °C 1005.8 hPa Calm     33.8% 0.0 mm 549 W/m2
15:59 33.9 °C 15.8 °C 1005.8 hPa North 1.5 km/h 7.9 km/h 34% 0.0 mm 549 W/m2
16:04 33.6 °C 15.6 °C 1005.8 hPa Calm   4 km/h 34% 0.0 mm 539 W/m2
16:09 33.3 °C 15.8 °C 1005.8 hPa North 3.5 km/h 16.3 km/h 35.1% 0.0 mm 538 W/m2
16:14 33 °C 15.7 °C 1005.4 hPa East 1.6 km/h 16.3 km/h 35.3% 0.0 mm 530 W/m2
16:19 32.2 °C 14.8 °C 1005.4 hPa NE 0.8 km/h 7.9 km/h 35% 0.0 mm 529 W/m2
16:24 32.2 °C 14.9 °C 1005.4 hPa NNE 2.2 km/h 12.2 km/h 35.3% 0.0 mm 525 W/m2
16:29 32 °C 14.6 °C 1005.4 hPa Calm   4 km/h 34.8% 0.0 mm 520 W/m2
16:34 32.1 °C 13.9 °C 1005.4 hPa Calm     33.2% 0.0 mm 525 W/m2
16:44 33.6 °C 19.1 °C 1005.4 hPa SE 6.4 km/h 16.3 km/h 42.4% 0.0 mm 519 W/m2
16:49 33.5 °C 20.2 °C 1005.4 hPa South 5.9 km/h 16.3 km/h 45.8% 0.0 mm 510 W/m2
16:54 33.3 °C 18.5 °C 1005.4 hPa SSE 6.2 km/h 16.3 km/h 41.6% 0.0 mm 504 W/m2
16:59 32.8 °C 16.7 °C 1005.4 hPa South 2.1 km/h 12.2 km/h 38.3% 0.0 mm 500 W/m2
17:04 32.8 °C 17.4 °C 1005.4 hPa SE 0.6 km/h 12.2 km/h 40% 0.0 mm 497 W/m2
17:09 32.8 °C 17.4 °C 1005.1 hPa South 3.8 km/h 16.3 km/h 40% 0.0 mm 494 W/m2
17:12 32.8 °C 17.5 °C 1005.1 hPa SE 1.2 km/h 12.2 km/h 40.3% 0.0 mm 488 W/m2
17:24 32.9 °C 17.1 °C 1009.1 hPa Calm     38.9% 0.0 mm 483 W/m2
17:29 33 °C 17.6 °C 1004.7 hPa SSW 2.4 km/h 12.2 km/h 40% 0.0 mm 480 W/m2
17:34 32.6 °C 19 °C 1005.1 hPa SSE 5 km/h 16.3 km/h 44.6% 0.0 mm 477 W/m2
17:39 32.1 °C 18.5 °C 1005.1 hPa SSE 2.3 km/h 20.1 km/h 44.4% 0.0 mm 465 W/m2
17:44 32.1 °C 17.6 °C 1005.1 hPa SE 1.8 km/h 7.9 km/h 42.1% 0.0 mm 456 W/m2
17:49 32.2 °C 17.5 °C 1005.1 hPa ESE 0.3 km/h 7.9 km/h 41.6% 0.0 mm 449 W/m2
17:54 32.2 °C 17.9 °C 1004.7 hPa SSE 1.9 km/h 16.3 km/h 42.6% 0.0 mm 445 W/m2
17:59 32.2 °C 20.6 °C 1005.1 hPa South 8.2 km/h 20.1 km/h 50.6% 0.0 mm 373 W/m2
18:04 31.9 °C 21.3 °C 1005.1 hPa South 11.4 km/h 24.1 km/h 53.7% 0.0 mm 415 W/m2
18:09 31.5 °C 20.9 °C 1005.1 hPa South 12.4 km/h 28 km/h 53.2% 0.0 mm 408 W/m2
18:14 30.8 °C 20.7 °C 1005.1 hPa South 10.6 km/h 28 km/h 55.2% 0.0 mm 403 W/m2
18:19 29.9 °C 20.9 °C 1004.7 hPa South 10.9 km/h 28 km/h 58.6% 0.0 mm 398 W/m2
18:24 29.8 °C 21.1 °C 1005.1 hPa South 8.5 km/h 16.3 km/h 59.9% 0.0 mm 328 W/m2
18:29 29.6 °C 21.4 °C 1005.1 hPa South 6.3 km/h 16.3 km/h 61.4% 0.0 mm 62 W/m2
18:34 29 °C 21.1 °C 1005.1 hPa South 12.1 km/h 28 km/h 62.3% 0.0 mm 58 W/m2
18:39 28.2 °C 20.6 °C 1005.1 hPa South 10.9 km/h 28 km/h 63.4% 0.0 mm 56 W/m2
18:44 28.2 °C 20.5 °C 1005.4 hPa SSW 7.1 km/h 16.3 km/h 63.2% 0.0 mm 54 W/m2
18:49 28.1 °C 20.5 °C 1005.4 hPa South 10.2 km/h 20.1 km/h 63.4% 0.0 mm 53 W/m2
18:54 27.9 °C 20.4 °C 1005.1 hPa South 9.1 km/h 20.1 km/h 63.4% 0.0 mm 51 W/m2
18:59 27.6 °C 20.6 °C 1005.4 hPa South 10 km/h 20.1 km/h 65.6% 0.0 mm 50 W/m2
19:04 27.6 °C 20.4 °C 1005.8 hPa South 8.6 km/h 20.1 km/h 65% 0.0 mm 49 W/m2
19:09 27.6 °C 20.6 °C 1005.4 hPa SSE 9.2 km/h 20.1 km/h 66% 0.0 mm 48 W/m2
19:14 27.4 °C 21 °C 1005.8 hPa South 10.7 km/h 24.1 km/h 68.4% 0.0 mm 47 W/m2
19:19 26.8 °C 20.8 °C 1005.8 hPa South 7.2 km/h 24.1 km/h 69.6% 0.0 mm 46 W/m2
19:24 26.8 °C 20.6 °C 1005.8 hPa South 10.1 km/h 20.1 km/h 69.1% 0.0 mm 44 W/m2
19:29 26.8 °C 20.4 °C 1005.8 hPa South 7.3 km/h 16.3 km/h 68.3% 0.0 mm 43 W/m2
19:34 26.6 °C 20.7 °C 1006.1 hPa South 6.9 km/h 12.2 km/h 69.8% 0.0 mm 41 W/m2
19:39 26.3 °C 20.5 °C 1005.8 hPa SSE 9.6 km/h 16.3 km/h 70.7% 0.0 mm 39 W/m2
19:44 26.3 °C 20.9 °C 1006.1 hPa South 9.8 km/h 20.1 km/h 72.2% 0.0 mm 37 W/m2
19:49 26.2 °C 21.1 °C 1005.8 hPa South 8 km/h 20.1 km/h 73.2% 0.0 mm 35 W/m2
19:54 26.1 °C 21.2 °C 1006.1 hPa South 10.5 km/h 20.1 km/h 74.4% 0.0 mm 33 W/m2
19:59 25.6 °C 20.8 °C 1006.1 hPa South 10.2 km/h 20.1 km/h 75% 0.0 mm 31 W/m2
20:04 25.5 °C 20.7 °C 1006.1 hPa South 9.9 km/h 20.1 km/h 75% 0.0 mm 28 W/m2
20:09 25.5 °C 21 °C 1006.1 hPa South 9.9 km/h 20.1 km/h 75.9% 0.0 mm 26 W/m2
20:14 25.4 °C 21 °C 1006.1 hPa South 8.7 km/h 20.1 km/h 76.6% 0.0 mm 23 W/m2
20:19 25.1 °C 20.9 °C 1006.1 hPa South 5.5 km/h 12.2 km/h 77.7% 0.0 mm 20 W/m2
20:24 25.1 °C 21 °C 1006.4 hPa South 5.5 km/h 16.3 km/h 78% 0.0 mm 17 W/m2
20:29 25.1 °C 21 °C 1006.4 hPa SSW 5.6 km/h 16.3 km/h 78% 0.0 mm 13 W/m2
20:34 25 °C 21.1 °C 1006.4 hPa South 6.3 km/h 12.2 km/h 78.9% 0.0 mm 9 W/m2
20:39 24.8 °C 20.8 °C 1006.4 hPa South 7.1 km/h 20.1 km/h 78.6% 0.0 mm 7 W/m2
20:44 24.7 °C 20.6 °C 1006.8 hPa South 6.5 km/h 16.3 km/h 78% 0.0 mm 4 W/m2
20:49 24.7 °C 20.6 °C 1006.8 hPa South 9.1 km/h 20.1 km/h 78% 0.0 mm 0 W/m2
20:54 24.7 °C 20.6 °C 1007.1 hPa South 8.3 km/h 20.1 km/h 78% 0.0 mm 0 W/m2
20:59 24.6 °C 20.5 °C 1007.1 hPa South 6.7 km/h 16.3 km/h 78% 0.0 mm 0 W/m2
21:04 24.6 °C 20.3 °C 1007.1 hPa South 7.2 km/h 16.3 km/h 77% 0.0 mm 0 W/m2
21:09 24.6 °C 20.1 °C 1007.1 hPa South 7.7 km/h 16.3 km/h 76% 0.0 mm 0 W/m2
21:14 24.6 °C 19.9 °C 1007.1 hPa South 7.4 km/h 16.3 km/h 75% 0.0 mm 0 W/m2
21:19 24.5 °C 19.8 °C 1007.1 hPa South 6.2 km/h 16.3 km/h 75% 0.0 mm 0 W/m2
21:24 24.5 °C 19.7 °C 1007.5 hPa South 5.8 km/h 16.3 km/h 74.6% 0.0 mm 0 W/m2
21:29 24.5 °C 19.6 °C 1007.5 hPa South 2.6 km/h 16.3 km/h 74% 0.0 mm 0 W/m2
21:34 24.5 °C 19.6 °C 1007.8 hPa South 6 km/h 12.2 km/h 74% 0.0 mm 0 W/m2
21:39 24.3 °C 19.3 °C 1007.8 hPa SSE 3.5 km/h 16.3 km/h 73.7% 0.0 mm 0 W/m2
21:44 24.3 °C 19.1 °C 1007.5 hPa South 6.8 km/h 20.1 km/h 73% 0.0 mm 0 W/m2
21:49 24.3 °C 19 °C 1007.8 hPa South 5.8 km/h 16.3 km/h 72.4% 0.0 mm 0 W/m2
21:54 24.3 °C 18.9 °C 1007.8 hPa South 5.4 km/h 16.3 km/h 72% 0.0 mm 0 W/m2
21:59 24.3 °C 18.9 °C 1007.8 hPa SSW 4.6 km/h 12.2 km/h 71.9% 0.0 mm 0 W/m2
22:04 24.4 °C 18.9 °C 1008.1 hPa South 3.5 km/h 12.2 km/h 71.6% 0.0 mm 0 W/m2
22:09 24.3 °C 18.9 °C 1008.1 hPa South 3.2 km/h 12.2 km/h 72% 0.0 mm 0 W/m2
22:14 24.3 °C 18.9 °C 1008.1 hPa South 2.8 km/h 12.2 km/h 72% 0.0 mm 0 W/m2
22:19 24.2 °C 18.7 °C 1008.5 hPa SSW 1.8 km/h 7.9 km/h 71.3% 0.0 mm 0 W/m2
22:24 24.2 °C 18.5 °C 1008.5 hPa SSW 2 km/h 12.2 km/h 70.6% 0.0 mm 0 W/m2
22:29 24.2 °C 18.3 °C 1008.5 hPa South 4.9 km/h 16.3 km/h 69.6% 0.0 mm 0 W/m2
22:34 24.3 °C 18.3 °C 1008.5 hPa South 5.1 km/h 12.2 km/h 69.4% 0.0 mm 0 W/m2
22:39 24.4 °C 18.3 °C 1008.5 hPa South 3.5 km/h 12.2 km/h 69% 0.0 mm 0 W/m2
22:44 24.5 °C 18.3 °C 1008.1 hPa South 3.9 km/h 16.3 km/h 68.6% 0.0 mm 0 W/m2
22:49 24.5 °C 18.4 °C 1008.5 hPa South 3.3 km/h 12.2 km/h 69% 0.0 mm 0 W/m2
22:54 24.4 °C 18.3 °C 1008.5 hPa South 2.9 km/h 7.9 km/h 69% 0.0 mm 0 W/m2
22:59 24.1 °C 18.3 °C 1008.5 hPa South 2 km/h 12.2 km/h 70% 0.0 mm 0 W/m2
23:04 24 °C 18.2 °C 1008.5 hPa South 1.8 km/h 12.2 km/h 70% 0.0 mm 0 W/m2
23:09 24.1 °C 18.1 °C 1008.5 hPa South 3.4 km/h 16.3 km/h 69% 0.0 mm 0 W/m2
23:14 24.1 °C 18 °C 1008.5 hPa South 2.5 km/h 12.2 km/h 68.7% 0.0 mm 0 W/m2
23:19 24.2 °C 18 °C 1008.8 hPa SSE 2.9 km/h 16.3 km/h 68.4% 0.0 mm 0 W/m2
23:24 24.2 °C 17.8 °C 1008.5 hPa South 3.6 km/h 16.3 km/h 67.2% 0.0 mm 0 W/m2
23:29 24.3 °C 18.2 °C 1008.8 hPa South 1.1 km/h 7.9 km/h 68.8% 0.0 mm 0 W/m2
23:34 24.3 °C 18.3 °C 1008.8 hPa South 1.3 km/h 7.9 km/h 69.3% 0.0 mm 0 W/m2
23:39 24 °C 18.2 °C 1008.8 hPa South 3.9 km/h 12.2 km/h 69.6% 0.0 mm 0 W/m2
23:44 24 °C 18 °C 1009.1 hPa SSW 0.8 km/h 12.2 km/h 68.9% 0.0 mm 0 W/m2
23:49 24 °C 17.9 °C 1009.1 hPa South 4.6 km/h 12.2 km/h 68.7% 0.0 mm 0 W/m2
23:54 24.1 °C 18.1 °C 1009.1 hPa South 3.3 km/h 12.2 km/h 69% 0.0 mm 0 W/m2
23:59 24.1 °C 18.2 °C 1009.1 hPa South 1.4 km/h 7.9 km/h 69.3% 0.0 mm 0 W/m2
Juneau County Weather
Compliments of Weather Underground - 2 mb